createdAt,value
2022-09-18T00:01:15.809Z,7.30
2022-09-18T00:03:43.795Z,7.30
2022-09-18T00:06:19.979Z,7.30
2022-09-18T00:08:51.166Z,7.40
2022-09-18T00:11:20.363Z,7.40
2022-09-18T00:13:47.875Z,7.40
2022-09-18T00:16:17.395Z,7.50
2022-09-18T00:18:44.884Z,7.40
2022-09-18T00:21:18.110Z,7.40
2022-09-18T00:23:46.504Z,7.40
2022-09-18T00:26:15.760Z,7.40
2022-09-18T00:28:43.391Z,7.40
2022-09-18T00:31:14.151Z,7.40
2022-09-18T00:33:42.203Z,7.30
2022-09-18T00:36:12.896Z,7.40
2022-09-18T00:38:40.996Z,7.30
2022-09-18T00:41:15.073Z,7.30
2022-09-18T00:43:42.603Z,7.30
2022-09-18T00:46:33.952Z,7.30
2022-09-18T00:49:20.939Z,7.40
2022-09-18T00:51:52.492Z,7.40
2022-09-18T00:54:30.860Z,7.40
2022-09-18T00:57:02.716Z,7.40
2022-09-18T00:59:32.476Z,7.40
2022-09-18T01:02:01.035Z,7.40
2022-09-18T01:04:29.625Z,7.40
2022-09-18T01:07:18.624Z,7.40
2022-09-18T01:10:05.920Z,7.40
2022-09-18T01:12:38.432Z,7.40
2022-09-18T01:15:25.855Z,7.50
2022-09-18T01:18:03.275Z,7.50
2022-09-18T01:20:36.291Z,7.60
2022-09-18T01:23:34.783Z,7.60
2022-09-18T01:26:02.207Z,7.60
2022-09-18T01:28:56.607Z,7.60
2022-09-18T01:31:31.673Z,7.60
2022-09-18T01:34:09.924Z,7.60
2022-09-18T01:36:41.470Z,7.60
2022-09-18T01:39:17.191Z,7.60
2022-09-18T01:41:51.141Z,7.60
2022-09-18T01:44:28.324Z,7.60
2022-09-18T01:47:01.443Z,7.60
2022-09-18T01:49:39.577Z,7.60
2022-09-18T01:52:23.107Z,7.50
2022-09-18T01:54:53.895Z,7.60
2022-09-18T01:57:24.098Z,7.70
2022-09-18T02:00:06.999Z,7.70
2022-09-18T02:02:46.223Z,7.70
2022-09-18T02:05:28.796Z,7.80
2022-09-18T02:08:33.127Z,7.80
2022-09-18T02:11:08.660Z,7.80
2022-09-18T02:13:44.690Z,7.90
2022-09-18T02:16:18.356Z,7.90
2022-09-18T02:18:50.602Z,7.90
2022-09-18T02:21:28.537Z,8.00
2022-09-18T02:24:03.280Z,8.00
2022-09-18T02:26:35.599Z,8.00
2022-09-18T02:29:04.892Z,8.00
2022-09-18T02:31:33.136Z,7.90
2022-09-18T02:34:00.556Z,7.90
2022-09-18T02:36:46.819Z,7.90
2022-09-18T02:39:27.103Z,7.90
2022-09-18T02:42:11.604Z,7.90
2022-09-18T02:45:17.261Z,8.00
2022-09-18T02:48:20.416Z,8.00
2022-09-18T02:51:16.642Z,8.00
2022-09-18T02:54:07.830Z,8.00
2022-09-18T02:56:55.879Z,8.00
2022-09-18T02:59:43.411Z,8.10
2022-09-18T03:02:16.587Z,8.10
2022-09-18T03:04:44.355Z,8.10
2022-09-18T03:07:17.810Z,8.10
2022-09-18T03:09:47.105Z,8.10
2022-09-18T03:12:16.410Z,8.10
2022-09-18T03:14:48.327Z,8.10
2022-09-18T03:17:15.551Z,8.10
2022-09-18T03:19:45.132Z,8.20
2022-09-18T03:22:13.695Z,8.20
2022-09-18T03:24:42.356Z,8.20
2022-09-18T03:27:10.484Z,8.20
2022-09-18T03:29:37.805Z,8.20
2022-09-18T03:32:05.275Z,8.30
2022-09-18T03:34:40.793Z,8.30
2022-09-18T03:37:08.082Z,8.30
2022-09-18T03:39:35.280Z,8.30
2022-09-18T03:42:04.415Z,8.30
2022-09-18T03:44:32.038Z,8.40
2022-09-18T03:47:04.079Z,8.40
2022-09-18T03:49:31.927Z,8.40
2022-09-18T03:51:59.308Z,8.40
2022-09-18T03:54:32.431Z,8.40
2022-09-18T03:57:12.147Z,8.40
2022-09-18T03:59:51.791Z,8.40
2022-09-18T04:02:42.858Z,8.40
2022-09-18T04:05:42.276Z,8.40
2022-09-18T04:08:44.447Z,8.40
2022-09-18T04:11:26.759Z,8.40
2022-09-18T04:13:54.177Z,8.40
2022-09-18T04:16:22.017Z,8.40
2022-09-18T04:18:49.293Z,8.40
2022-09-18T04:21:16.677Z,8.40
2022-09-18T04:23:43.917Z,8.40
2022-09-18T04:26:13.919Z,8.40
2022-09-18T04:28:48.877Z,8.40
2022-09-18T04:31:16.364Z,8.30
2022-09-18T04:33:43.632Z,8.50
2022-09-18T04:36:10.872Z,8.50
2022-09-18T04:38:39.457Z,8.50
2022-09-18T04:41:06.735Z,8.40
2022-09-18T04:43:34.137Z,8.40
2022-09-18T04:46:01.453Z,8.50
2022-09-18T04:48:28.796Z,8.50
2022-09-18T04:50:59.475Z,8.50
2022-09-18T04:53:28.144Z,8.40
2022-09-18T04:55:57.184Z,8.50
2022-09-18T04:58:24.567Z,8.40
2022-09-18T05:00:59.012Z,8.50
2022-09-18T05:03:26.440Z,8.50
2022-09-18T05:05:55.799Z,8.50
2022-09-18T05:08:23.325Z,8.50
2022-09-18T05:10:51.157Z,8.50
2022-09-18T05:13:18.518Z,8.50
2022-09-18T05:16:14.481Z,8.50
2022-09-18T05:18:43.540Z,8.60
2022-09-18T05:21:11.492Z,8.60
2022-09-18T05:23:40.219Z,8.60
2022-09-18T05:26:07.425Z,8.50
2022-09-18T05:28:34.623Z,8.60
2022-09-18T05:31:02.277Z,8.60
2022-09-18T05:33:41.153Z,8.60
2022-09-18T05:36:08.489Z,8.60
2022-09-18T05:38:35.966Z,8.60
2022-09-18T05:41:05.435Z,8.70
2022-09-18T05:43:32.807Z,8.70
2022-09-18T05:46:01.604Z,8.60
2022-09-18T05:48:40.443Z,8.70
2022-09-18T05:51:07.656Z,8.80
2022-09-18T05:53:35.119Z,8.80
2022-09-18T05:56:18.847Z,8.80
2022-09-18T05:58:46.758Z,8.90
2022-09-18T06:01:14.476Z,8.90
2022-09-18T06:04:02.552Z,8.90
2022-09-18T06:06:40.066Z,8.90
2022-09-18T06:09:07.276Z,9.00
2022-09-18T06:11:34.440Z,8.90
2022-09-18T06:14:01.922Z,9.00
2022-09-18T06:16:29.466Z,9.00
2022-09-18T06:19:00.534Z,9.00
2022-09-18T06:21:27.869Z,9.10
2022-09-18T06:23:55.395Z,9.10
2022-09-18T06:26:34.508Z,9.10
2022-09-18T06:29:01.923Z,9.10
2022-09-18T06:31:35.254Z,9.10
2022-09-18T06:34:07.976Z,9.10
2022-09-18T06:36:35.470Z,9.20
2022-09-18T06:39:25.105Z,9.20
2022-09-18T06:41:59.920Z,9.30
2022-09-18T06:44:46.655Z,9.30
2022-09-18T06:47:15.563Z,9.30
2022-09-18T06:49:45.784Z,9.20
2022-09-18T06:52:12.940Z,9.20
2022-09-18T06:54:40.787Z,9.20
2022-09-18T06:57:08.420Z,9.30
2022-09-18T06:59:37.675Z,9.40
2022-09-18T07:02:19.195Z,9.30
2022-09-18T07:05:15.864Z,9.30
2022-09-18T07:07:46.536Z,9.20
2022-09-18T07:10:14.588Z,9.30
2022-09-18T07:12:48.334Z,9.20
2022-09-18T07:15:19.231Z,9.30
2022-09-18T07:17:46.888Z,9.30
2022-09-18T07:20:16.788Z,9.30
2022-09-18T07:22:55.865Z,9.30
2022-09-18T07:25:34.497Z,9.20
2022-09-18T07:28:07.859Z,9.30
2022-09-18T07:30:40.740Z,9.40
2022-09-18T07:33:09.852Z,9.20
2022-09-18T07:35:43.543Z,9.30
2022-09-18T07:38:11.825Z,9.30
2022-09-18T07:40:50.404Z,9.40
2022-09-18T07:43:29.020Z,9.50
2022-09-18T07:45:56.551Z,9.40
2022-09-18T07:48:24.287Z,9.40
2022-09-18T07:50:58.743Z,9.40
2022-09-18T07:53:26.626Z,9.50
2022-09-18T07:55:57.587Z,9.40
2022-09-18T07:58:27.094Z,9.60
2022-09-18T08:01:05.652Z,9.70
2022-09-18T08:03:41.377Z,9.60
2022-09-18T08:06:12.288Z,9.60
2022-09-18T08:08:59.852Z,9.70
2022-09-18T08:11:37.734Z,9.70
2022-09-18T08:14:25.354Z,9.70
2022-09-18T08:17:12.327Z,9.70
2022-09-18T08:19:54.155Z,9.60
2022-09-18T08:22:42.062Z,9.70
2022-09-18T08:25:10.899Z,9.70
2022-09-18T08:27:42.032Z,9.80
2022-09-18T08:30:12.955Z,9.80
2022-09-18T08:32:41.012Z,9.70
2022-09-18T08:35:10.903Z,9.80
2022-09-18T08:37:38.824Z,9.80
2022-09-18T08:40:42.303Z,9.90
2022-09-18T08:43:39.589Z,10.10
2022-09-18T08:46:22.206Z,10.20
2022-09-18T08:49:01.236Z,10.30
2022-09-18T08:51:37.459Z,10.10
2022-09-18T08:54:15.373Z,10.30
2022-09-18T08:57:05.461Z,10.20
2022-09-18T08:59:57.564Z,10.20
2022-09-18T09:02:45.200Z,10.00
2022-09-18T09:05:27.124Z,10.20
2022-09-18T09:08:18.918Z,10.20
2022-09-18T09:11:08.163Z,10.20
2022-09-18T09:13:45.605Z,10.40
2022-09-18T09:16:18.433Z,10.40
2022-09-18T09:18:54.915Z,10.40
2022-09-18T09:21:31.049Z,10.50
2022-09-18T09:24:21.004Z,10.70
2022-09-18T09:27:26.157Z,10.80
2022-09-18T09:30:20.244Z,10.90
2022-09-18T09:33:05.866Z,10.90
2022-09-18T09:35:46.699Z,10.90
2022-09-18T09:38:42.124Z,10.90
2022-09-18T09:41:17.784Z,10.90
2022-09-18T09:43:50.716Z,10.80
2022-09-18T09:46:36.498Z,10.80
2022-09-18T09:49:25.590Z,10.80
2022-09-18T09:52:09.690Z,10.80
2022-09-18T09:54:38.257Z,10.80
2022-09-18T09:57:17.893Z,10.80
2022-09-18T10:00:10.495Z,10.90
2022-09-18T10:03:11.747Z,10.90
2022-09-18T10:05:59.575Z,11.10
2022-09-18T10:08:42.898Z,11.20
2022-09-18T10:11:13.113Z,11.30
2022-09-18T10:14:15.235Z,11.30
2022-09-18T10:16:51.620Z,11.40
2022-09-18T10:19:21.577Z,11.40
2022-09-18T10:21:53.938Z,11.40
2022-09-18T10:24:44.181Z,11.40
2022-09-18T10:27:20.899Z,11.40
2022-09-18T10:29:53.557Z,11.20
2022-09-18T10:32:39.063Z,11.30
2022-09-18T10:35:30.819Z,11.30
2022-09-18T10:37:59.321Z,11.40
2022-09-18T10:40:38.333Z,11.40
2022-09-18T10:43:18.291Z,11.30
2022-09-18T10:45:55.337Z,11.40
2022-09-18T10:48:31.291Z,11.50
2022-09-18T10:51:03.950Z,11.50
2022-09-18T10:53:39.709Z,11.50
2022-09-18T10:56:20.004Z,11.50
2022-09-18T10:58:48.992Z,11.50
2022-09-18T11:01:17.091Z,11.50
2022-09-18T11:04:04.884Z,11.50
2022-09-18T11:06:37.660Z,11.60
2022-09-18T11:09:19.874Z,11.60
2022-09-18T11:11:51.581Z,11.60
2022-09-18T11:14:27.073Z,11.50
2022-09-18T11:17:01.566Z,11.50
2022-09-18T11:19:38.897Z,11.50
2022-09-18T11:22:43.160Z,11.50
2022-09-18T11:25:24.613Z,11.60
2022-09-18T11:27:57.708Z,11.60
2022-09-18T11:30:34.206Z,11.60
2022-09-18T11:33:29.667Z,11.70
2022-09-18T11:36:10.188Z,11.90
2022-09-18T11:38:44.083Z,12.10
2022-09-18T11:41:20.520Z,12.10
2022-09-18T11:44:01.977Z,12.20
2022-09-18T11:46:39.082Z,12.10
2022-09-18T11:49:18.924Z,12.20
2022-09-18T11:52:04.628Z,12.30
2022-09-18T11:54:51.953Z,12.30
2022-09-18T11:58:05.783Z,12.30
2022-09-18T12:00:41.753Z,12.30
2022-09-18T12:03:35.857Z,12.20
2022-09-18T12:06:12.175Z,12.30
2022-09-18T12:08:52.974Z,12.30
2022-09-18T12:11:35.254Z,12.10
2022-09-18T12:14:15.707Z,12.20
2022-09-18T12:17:17.999Z,12.00
2022-09-18T12:19:56.548Z,11.80
2022-09-18T12:22:33.980Z,11.80
2022-09-18T12:25:14.200Z,11.60
2022-09-18T12:28:16.311Z,11.50
2022-09-18T12:30:54.883Z,11.60
2022-09-18T12:33:37.653Z,11.50
2022-09-18T12:36:35.900Z,11.60
2022-09-18T12:39:13.604Z,11.50
2022-09-18T12:42:11.323Z,11.60
2022-09-18T12:45:10.171Z,11.70
2022-09-18T12:48:11.911Z,11.90
2022-09-18T12:50:53.166Z,12.00
2022-09-18T12:53:26.500Z,12.00
2022-09-18T12:56:14.807Z,12.00
2022-09-18T12:58:47.959Z,12.00
2022-09-18T13:01:30.104Z,11.90
2022-09-18T13:04:23.151Z,11.70
2022-09-18T13:07:02.418Z,11.50
2022-09-18T13:09:38.576Z,11.40
2022-09-18T13:12:33.728Z,11.20
2022-09-18T13:15:18.000Z,11.10
2022-09-18T13:17:52.986Z,11.10
2022-09-18T13:20:25.152Z,11.10
2022-09-18T13:22:54.021Z,11.30
2022-09-18T13:25:32.794Z,11.40
2022-09-18T13:28:02.602Z,11.40
2022-09-18T13:30:31.641Z,11.70
2022-09-18T13:32:59.750Z,11.80
2022-09-18T13:35:30.878Z,11.90
2022-09-18T13:38:19.369Z,12.10
2022-09-18T13:41:01.708Z,12.30
2022-09-18T13:43:28.908Z,12.40
2022-09-18T13:45:57.679Z,12.50
2022-09-18T13:48:39.984Z,12.60
2022-09-18T13:51:32.492Z,12.60
2022-09-18T13:54:12.055Z,12.60
2022-09-18T13:57:15.210Z,12.60
2022-09-18T13:59:50.555Z,12.60
2022-09-18T14:02:35.767Z,12.60
2022-09-18T14:05:33.434Z,12.70
2022-09-18T14:08:24.145Z,12.80
2022-09-18T14:11:19.569Z,12.90
2022-09-18T14:13:58.186Z,12.90
2022-09-18T14:16:38.794Z,13.00
2022-09-18T14:19:30.828Z,13.00
2022-09-18T14:21:59.583Z,12.90
2022-09-18T14:24:39.535Z,12.90
2022-09-18T14:27:44.431Z,12.80
2022-09-18T14:30:15.636Z,12.70
2022-09-18T14:32:52.239Z,12.60
2022-09-18T14:35:48.158Z,12.60
2022-09-18T14:38:27.473Z,12.50
2022-09-18T14:41:06.573Z,12.50
2022-09-18T14:43:33.738Z,12.50
2022-09-18T14:46:01.024Z,12.50
2022-09-18T14:48:34.991Z,12.40
2022-09-18T14:51:15.483Z,12.30
2022-09-18T14:53:44.996Z,12.30
2022-09-18T14:56:16.450Z,12.20
2022-09-18T14:58:46.605Z,12.20
2022-09-18T15:01:35.135Z,12.20
2022-09-18T15:04:04.769Z,12.20
2022-09-18T15:06:39.139Z,12.10
2022-09-18T15:09:09.895Z,12.10
2022-09-18T15:11:58.713Z,12.10
2022-09-18T15:14:44.054Z,12.10
2022-09-18T15:17:26.622Z,12.10
2022-09-18T15:19:59.532Z,12.10
2022-09-18T15:22:28.043Z,12.10
2022-09-18T15:24:58.706Z,12.20
2022-09-18T15:27:26.179Z,12.10
2022-09-18T15:30:04.798Z,12.00
2022-09-18T15:32:41.248Z,12.00
2022-09-18T15:35:18.090Z,12.00
2022-09-18T15:37:51.652Z,12.10
2022-09-18T15:40:25.555Z,11.90
2022-09-18T15:42:59.198Z,11.90
2022-09-18T15:45:29.231Z,12.00
2022-09-18T15:47:58.921Z,12.00
2022-09-18T15:50:34.463Z,12.00
2022-09-18T15:53:16.021Z,12.00
2022-09-18T15:55:52.224Z,11.90
2022-09-18T15:58:43.323Z,11.90
2022-09-18T16:01:20.647Z,11.80
2022-09-18T16:03:48.710Z,11.80
2022-09-18T16:06:27.340Z,11.90
2022-09-18T16:08:56.445Z,11.80
2022-09-18T16:11:43.299Z,11.80
2022-09-18T16:14:42.696Z,11.80
2022-09-18T16:17:28.445Z,11.80
2022-09-18T16:19:57.306Z,11.80
2022-09-18T16:22:27.835Z,11.70
2022-09-18T16:24:56.835Z,11.60
2022-09-18T16:27:26.107Z,11.80
2022-09-18T16:29:53.286Z,11.70
2022-09-18T16:32:21.753Z,11.70
2022-09-18T16:34:48.983Z,11.70
2022-09-18T16:37:17.022Z,11.60
2022-09-18T16:39:45.006Z,11.50
2022-09-18T16:42:18.548Z,11.60
2022-09-18T16:44:46.138Z,11.70
2022-09-18T16:47:14.663Z,11.60
2022-09-18T16:49:44.448Z,11.60
2022-09-18T16:52:12.624Z,11.60
2022-09-18T16:54:39.764Z,11.50
2022-09-18T16:57:13.952Z,11.50
2022-09-18T16:59:42.645Z,11.50
2022-09-18T17:02:12.451Z,11.50
2022-09-18T17:04:39.648Z,11.50
2022-09-18T17:07:07.094Z,11.50
2022-09-18T17:09:34.680Z,11.40
2022-09-18T17:12:02.011Z,11.50
2022-09-18T17:14:29.475Z,11.40
2022-09-18T17:16:56.699Z,11.40
2022-09-18T17:19:23.972Z,11.50
2022-09-18T17:21:51.307Z,11.40
2022-09-18T17:24:24.038Z,11.40
2022-09-18T17:26:52.930Z,11.40
2022-09-18T17:29:21.398Z,11.40
2022-09-18T17:31:48.566Z,11.40
2022-09-18T17:34:16.524Z,11.40
2022-09-18T17:36:43.772Z,11.40
2022-09-18T17:39:11.756Z,11.40
2022-09-18T17:41:39.146Z,11.50
2022-09-18T17:44:06.579Z,11.50
2022-09-18T17:46:33.776Z,11.50
2022-09-18T17:49:01.862Z,11.40
2022-09-18T17:51:29.389Z,11.50
2022-09-18T17:54:04.562Z,11.50
2022-09-18T17:56:33.215Z,11.40
2022-09-18T17:59:05.612Z,11.50
2022-09-18T18:01:36.486Z,11.50
2022-09-18T18:04:05.511Z,11.50
2022-09-18T18:06:33.312Z,11.50
2022-09-18T18:09:01.250Z,11.50
2022-09-18T18:11:29.495Z,11.50
2022-09-18T18:13:57.149Z,11.50
2022-09-18T18:16:30.572Z,11.50
2022-09-18T18:19:03.556Z,11.50
2022-09-18T18:21:32.447Z,11.50
2022-09-18T18:24:03.708Z,11.70
2022-09-18T18:26:31.088Z,11.50
2022-09-18T18:28:58.260Z,11.60
2022-09-18T18:31:26.232Z,11.50
2022-09-18T18:33:55.188Z,11.50
2022-09-18T18:36:28.755Z,11.50
2022-09-18T18:38:58.877Z,11.40
2022-09-18T18:41:28.967Z,11.40
2022-09-18T18:44:01.830Z,11.40
2022-09-18T18:46:35.765Z,11.40
2022-09-18T18:49:09.240Z,11.40
2022-09-18T18:51:47.609Z,11.30
2022-09-18T18:54:17.834Z,11.30
2022-09-18T18:56:46.209Z,11.20
2022-09-18T18:59:16.125Z,11.20
2022-09-18T19:01:43.653Z,11.30
2022-09-18T19:04:13.748Z,11.10
2022-09-18T19:06:42.996Z,11.10
2022-09-18T19:09:20.130Z,11.10
2022-09-18T19:11:49.262Z,11.20
2022-09-18T19:14:21.907Z,11.10
2022-09-18T19:16:50.367Z,11.10
2022-09-18T19:19:19.736Z,11.20
2022-09-18T19:21:47.603Z,11.10
2022-09-18T19:24:16.582Z,11.20
2022-09-18T19:26:44.426Z,11.10
2022-09-18T19:29:13.504Z,11.00
2022-09-18T19:31:43.051Z,11.00
2022-09-18T19:34:15.895Z,11.00
2022-09-18T19:36:48.912Z,11.00
2022-09-18T19:39:17.559Z,11.00
2022-09-18T19:42:04.356Z,10.90
2022-09-18T19:44:36.239Z,11.00
2022-09-18T19:47:14.986Z,10.90
2022-09-18T19:49:42.166Z,10.90
2022-09-18T19:52:21.885Z,10.80
2022-09-18T19:54:51.745Z,10.80
2022-09-18T19:57:19.811Z,10.90
2022-09-18T19:59:47.442Z,10.80
2022-09-18T20:02:17.596Z,10.80
2022-09-18T20:04:45.286Z,10.80
2022-09-18T20:07:13.158Z,10.90
2022-09-18T20:09:40.791Z,10.80
2022-09-18T20:12:09.169Z,10.90
2022-09-18T20:14:36.347Z,10.90
2022-09-18T20:17:03.586Z,10.90
2022-09-18T20:19:30.888Z,10.90
2022-09-18T20:22:02.246Z,10.90
2022-09-18T20:24:30.755Z,10.90
2022-09-18T20:26:58.923Z,10.90
2022-09-18T20:29:27.626Z,10.90
2022-09-18T20:31:55.217Z,11.00
2022-09-18T20:34:23.144Z,11.00
2022-09-18T20:36:52.012Z,11.00
2022-09-18T20:39:19.421Z,11.00
2022-09-18T20:41:47.558Z,11.00
2022-09-18T20:44:15.364Z,10.90
2022-09-18T20:46:43.270Z,10.90
2022-09-18T20:49:11.528Z,11.10
2022-09-18T20:51:38.858Z,10.90
2022-09-18T20:54:09.350Z,10.90
2022-09-18T20:56:41.936Z,10.90
2022-09-18T20:59:10.619Z,10.90
2022-09-18T21:01:40.227Z,10.90
2022-09-18T21:04:16.860Z,11.00
2022-09-18T21:06:51.507Z,10.90
2022-09-18T21:09:18.656Z,11.00
2022-09-18T21:11:45.905Z,11.00
2022-09-18T21:14:17.755Z,11.00
2022-09-18T21:16:44.932Z,11.00
2022-09-18T21:19:14.856Z,11.00
2022-09-18T21:21:42.030Z,11.20
2022-09-18T21:24:09.463Z,11.10
2022-09-18T21:26:39.195Z,11.10
2022-09-18T21:29:07.823Z,11.10
2022-09-18T21:31:42.155Z,11.10
2022-09-18T21:34:14.622Z,11.10
2022-09-18T21:36:45.480Z,11.10
2022-09-18T21:39:14.286Z,11.10
2022-09-18T21:41:46.034Z,11.10
2022-09-18T21:44:15.847Z,11.20
2022-09-18T21:46:45.694Z,11.10
2022-09-18T21:49:15.043Z,11.10
2022-09-18T21:51:43.189Z,11.00
2022-09-18T21:54:15.499Z,10.90
2022-09-18T21:56:44.151Z,10.80
2022-09-18T21:59:12.362Z,10.80
2022-09-18T22:01:41.808Z,10.70
2022-09-18T22:04:10.605Z,10.60
2022-09-18T22:06:42.843Z,10.60
2022-09-18T22:09:17.031Z,10.60
2022-09-18T22:11:45.911Z,10.50
2022-09-18T22:14:25.143Z,10.30
2022-09-18T22:16:53.638Z,10.20
2022-09-18T22:19:21.321Z,9.90
2022-09-18T22:21:50.870Z,10.00
2022-09-18T22:24:21.708Z,9.70
2022-09-18T22:26:52.675Z,9.60
2022-09-18T22:29:23.361Z,9.60
2022-09-18T22:31:51.682Z,9.50
2022-09-18T22:34:24.843Z,9.60
2022-09-18T22:36:52.696Z,9.60
2022-09-18T22:39:21.609Z,9.60
2022-09-18T22:41:50.229Z,9.50
2022-09-18T22:44:18.470Z,9.50
2022-09-18T22:46:46.324Z,9.50
2022-09-18T22:49:15.280Z,9.40
2022-09-18T22:51:43.331Z,9.40
2022-09-18T22:54:11.099Z,9.40
2022-09-18T22:56:41.270Z,9.40
2022-09-18T22:59:11.026Z,9.40
2022-09-18T23:01:47.208Z,9.40
2022-09-18T23:04:15.455Z,9.40
2022-09-18T23:06:43.662Z,9.30
2022-09-18T23:09:13.878Z,9.30
2022-09-18T23:11:41.852Z,9.50
2022-09-18T23:14:14.314Z,9.40
2022-09-18T23:16:41.598Z,9.30
2022-09-18T23:19:14.975Z,9.50
2022-09-18T23:21:42.409Z,9.20
2022-09-18T23:24:10.550Z,9.20
2022-09-18T23:26:40.704Z,9.30
2022-09-18T23:29:20.563Z,9.30
2022-09-18T23:31:52.923Z,9.30
2022-09-18T23:34:22.337Z,9.20
2022-09-18T23:36:52.415Z,9.20
2022-09-18T23:39:26.955Z,9.20
2022-09-18T23:41:55.259Z,9.20
2022-09-18T23:44:23.142Z,9.20
2022-09-18T23:46:50.911Z,9.20
2022-09-18T23:49:23.343Z,9.20
2022-09-18T23:51:52.491Z,9.10
2022-09-18T23:54:25.262Z,9.10
2022-09-18T23:56:53.131Z,9.10
2022-09-18T23:59:23.101Z,9.00
